Time;durP1;ratioP1;P1;durP2;ratioP2;P2;SDS_P1;SDS_P2;PMS_P1;PMS_P2;Temp;Humidity;BMP_temperature;BMP_pressure;BME280_temperature;BME280_humidity;BME280_pressure;Samples;Min_cycle;Max_cycle;Signal;HPM_P1;HPM_P2
2023/05/06 00:02:43;;;;;;;6.43;4.20;;;12.20;99.90;;;;;;20995960;28;20028;-74
2023/05/06 00:12:44;;;;;;;6.57;4.17;;;12.30;99.90;;;;;;20998678;28;20060;-73
2023/05/06 00:22:45;;;;;;;7.37;4.37;;;12.20;99.90;;;;;;20995986;28;20445;-73
2023/05/06 00:32:45;;;;;;;11.17;5.10;;;12.10;99.90;;;;;;20925245;28;20090;-73
2023/05/06 00:42:47;;;;;;;28.98;6.88;;;12.10;99.90;;;;;;20911117;28;20029;-73
2023/05/06 00:52:48;;;;;;;12.10;6.37;;;12.20;99.90;;;;;;20929976;28;20086;-73
2023/05/06 01:02:49;;;;;;;94.40;9.30;;;12.30;99.90;;;;;;20972418;28;20047;-73
2023/05/06 01:13:10;;;;;;;84.63;10.63;;;12.20;99.90;;;;;;20991116;28;20024;-73
2023/05/06 01:23:12;;;;;;;216.25;16.42;;;12.20;99.90;;;;;;20959718;28;20398;-73
2023/05/06 01:33:29;;;;;;;25.50;11.27;;;12.20;99.90;;;;;;20917093;28;20102;-73
2023/05/06 01:43:36;;;;;;;108.85;13.82;;;12.40;99.90;;;;;;20965796;28;20463;-73
2023/05/06 01:53:37;;;;;;;25.98;10.02;;;12.40;99.90;;;;;;20989878;28;20107;-73
2023/05/06 02:03:38;;;;;;;28.30;10.77;;;12.60;99.90;;;;;;20987006;28;20037;-73
2023/05/06 02:13:39;;;;;;;19.30;10.03;;;12.70;99.90;;;;;;20952670;28;20394;-73
2023/05/06 02:23:41;;;;;;;22.98;10.23;;;12.60;99.90;;;;;;20970638;28;20119;-73
2023/05/06 02:33:44;;;;;;;19.90;9.73;;;12.60;99.90;;;;;;20901831;28;20276;-73
2023/05/06 02:43:45;;;;;;;28.98;10.25;;;12.70;99.90;;;;;;20903842;28;20086;-74
2023/05/06 02:53:46;;;;;;;53.67;10.57;;;12.50;99.90;;;;;;21000744;28;20028;-73
2023/05/06 03:03:47;;;;;;;10.20;5.80;;;12.60;99.90;;;;;;20943310;28;20047;-73
2023/05/06 03:13:47;;;;;;;17.80;6.03;;;12.50;99.90;;;;;;20981377;28;20043;-73
2023/05/06 03:23:48;;;;;;;8.33;4.63;;;12.40;99.90;;;;;;20999452;28;20560;-73
2023/05/06 03:33:51;;;;;;;5.03;3.00;;;12.20;99.90;;;;;;20978358;28;20028;-73
2023/05/06 03:43:54;;;;;;;;;;;12.10;99.90;;;;;;20980828;28;20029;-74
2023/05/06 03:53:58;;;;;;;9.48;3.53;;;12.10;99.90;;;;;;20978505;28;19908;-74
2023/05/06 04:04:00;;;;;;;8.65;3.42;;;12.10;99.90;;;;;;21004061;22;20498;-74
2023/05/06 04:14:01;;;;;;;;;;;12.20;99.90;;;;;;21029807;28;20041;-74
2023/05/06 04:24:03;;;;;;;13.48;5.22;;;12.10;99.90;;;;;;21074742;28;20378;-74
2023/05/06 04:34:10;;;;;;;6.82;3.97;;;12.20;99.90;;;;;;21063179;28;20017;-74
2023/05/06 04:44:11;;;;;;;9.43;4.68;;;12.40;99.90;;;;;;21087089;28;20039;-74
2023/05/06 04:54:13;;;;;;;12.15;4.03;;;12.50;99.90;;;;;;21075405;28;20028;-74
2023/05/06 05:04:14;;;;;;;;;;;12.50;99.90;;;;;;21068844;28;20401;-74
2023/05/06 05:14:15;;;;;;;14.07;7.90;;;12.40;99.90;;;;;;21103095;28;19965;-74
2023/05/06 05:24:17;;;;;;;16.63;8.63;;;12.60;99.90;;;;;;21111919;28;20031;-76
2023/05/06 05:34:18;;;;;;;21.90;9.77;;;12.70;99.90;;;;;;21086796;28;20081;-76
2023/05/06 05:44:19;;;;;;;22.90;10.15;;;12.80;99.90;;;;;;21108955;28;20031;-75
2023/05/06 05:54:21;;;;;;;23.88;9.95;;;12.90;99.90;;;;;;21069003;28;20051;-75
2023/05/06 06:04:22;;;;;;;21.13;9.47;;;13.10;99.90;;;;;;21092638;28;20024;-75
2023/05/06 06:14:23;;;;;;;24.33;11.40;;;13.50;99.90;;;;;;21110973;28;20028;-76
2023/05/06 06:24:27;;;;;;;;;;;13.30;99.90;;;;;;21111546;28;20031;-74
2023/05/06 06:34:27;;;;;;;18.20;8.13;;;13.70;99.90;;;;;;21071865;27;19961;-76
2023/05/06 06:44:29;;;;;;;18.80;8.23;;;14.20;99.90;;;;;;21043154;28;20107;-75
2023/05/06 06:54:30;;;;;;;13.07;7.90;;;14.70;99.90;;;;;;21069808;28;20028;-75
2023/05/06 07:04:31;;;;;;;14.80;7.07;;;14.90;99.90;;;;;;21094112;28;20102;-80
2023/05/06 07:14:32;;;;;;;9.93;5.60;;;15.30;99.90;;;;;;21130888;28;20024;-78
2023/05/06 07:24:33;;;;;;;8.63;4.78;;;17.00;99.90;;;;;;21153238;28;20028;-76
2023/05/06 07:34:34;;;;;;;10.10;5.40;;;17.70;99.90;;;;;;21101689;28;20496;-76
2023/05/06 07:44:35;;;;;;;10.02;5.38;;;18.10;99.90;;;;;;21122507;28;20507;-75
2023/05/06 07:54:36;;;;;;;6.67;4.30;;;18.30;99.90;;;;;;21131307;28;20056;-77
2023/05/06 08:04:37;;;;;;;5.30;3.23;;;19.30;99.90;;;;;;21088179;28;20389;-76
2023/05/06 08:14:38;;;;;;;6.27;3.17;;;19.50;99.90;;;;;;21106829;28;20386;-75
2023/05/06 08:24:39;;;;;;;9.70;3.60;;;19.20;99.90;;;;;;21100592;28;20107;-75
2023/05/06 08:34:39;;;;;;;7.63;3.87;;;20.20;99.90;;;;;;21110874;28;20028;-75
2023/05/06 08:44:42;;;;;;;6.37;2.80;;;21.30;99.90;;;;;;21079018;28;20035;-75
2023/05/06 08:54:45;;;;;;;5.03;3.10;;;21.50;99.90;;;;;;21079491;28;20733;-75
2023/05/06 09:04:46;;;;;;;3.47;2.40;;;21.80;99.90;;;;;;21079659;28;20658;-75
2023/05/06 09:14:50;;;;;;;3.45;2.05;;;22.30;99.90;;;;;;21014860;28;20422;-76
2023/05/06 09:24:55;;;;;;;3.55;2.17;;;23.90;99.90;;;;;;21001319;28;20035;-77
2023/05/06 09:34:56;;;;;;;5.78;2.60;;;24.10;99.90;;;;;;21047176;28;20031;-75
2023/05/06 09:44:59;;;;;;;7.78;3.17;;;23.80;99.90;;;;;;21064188;28;20436;-74
2023/05/06 09:55:02;;;;;;;4.32;2.03;;;24.40;99.90;;;;;;21033135;28;20367;-76
2023/05/06 10:05:04;;;;;;;5.47;2.00;;;24.70;99.90;;;;;;21056440;22;20060;-75
2023/05/06 10:15:06;;;;;;;3.40;1.92;;;24.10;99.90;;;;;;20997270;28;20021;-75
2023/05/06 10:25:18;;;;;;;3.15;1.88;;;24.20;99.90;;;;;;21017711;28;20036;-76
2023/05/06 10:35:32;;;;;;;6.20;1.33;;;24.90;99.90;;;;;;20923048;28;20510;-75
2023/05/06 10:46:03;;;;;;;3.60;1.67;;;25.80;99.90;;;;;;21020820;28;20039;-77
2023/05/06 10:56:08;;;;;;;3.90;1.30;;;24.50;99.90;;;;;;21044087;28;20077;-74
2023/05/06 11:06:09;;;;;;;4.25;1.20;;;25.00;99.90;;;;;;20998280;28;20052;-77
2023/05/06 11:16:46;;;;;;;9.27;2.00;;;25.00;99.90;;;;;;21056780;28;20036;-74
2023/05/06 11:26:46;;;;;;;3.65;1.00;;;25.40;99.90;;;;;;20943970;28;20040;-77
2023/05/06 11:36:57;;;;;;;1.98;1.13;;;24.40;99.90;;;;;;20972366;28;20364;-75
2023/05/06 11:47:00;;;;;;;5.93;1.07;;;25.90;99.90;;;;;;21002725;28;20042;-76
2023/05/06 11:57:02;;;;;;;0.82;0.77;;;24.90;99.90;;;;;;21071499;28;20094;-75
2023/05/06 12:07:04;;;;;;;3.25;1.20;;;25.80;99.90;;;;;;20999187;28;20124;-77
2023/05/06 12:17:06;;;;;;;3.40;1.30;;;24.40;99.90;;;;;;21004308;28;20036;-73
2023/05/06 12:27:07;;;;;;;4.65;1.52;;;24.60;99.90;;;;;;20997360;28;20500;-77
2023/05/06 12:37:07;;;;;;;1.52;1.00;;;24.90;99.90;;;;;;21006507;28;20025;-77
2023/05/06 12:47:17;;;;;;;;;;;23.60;99.90;;;;;;21054963;28;20444;-77
2023/05/06 12:57:18;;;;;;;2.95;1.27;;;23.00;99.90;;;;;;20999468;28;19911;-75
2023/05/06 13:07:19;;;;;;;;;;;23.40;99.90;;;;;;21030988;28;20603;-77
2023/05/06 13:17:20;;;;;;;2.95;1.15;;;23.70;99.90;;;;;;21037686;28;19920;-75
2023/05/06 13:27:20;;;;;;;;;;;23.60;99.90;;;;;;21022616;28;20024;-77
2023/05/06 13:37:22;;;;;;;4.17;1.67;;;24.00;99.90;;;;;;21033524;28;20302;-73
2023/05/06 13:47:24;;;;;;;2.42;1.00;;;24.50;99.90;;;;;;21035652;28;20077;-74
2023/05/06 13:57:24;;;;;;;12.10;1.67;;;24.60;99.90;;;;;;21003909;28;20023;-73
2023/05/06 14:07:25;;;;;;;2.70;1.27;;;25.20;99.90;;;;;;21066365;28;20039;-76
2023/05/06 14:17:26;;;;;;;;;;;23.80;99.90;;;;;;20994686;28;20044;-76
2023/05/06 14:27:27;;;;;;;6.00;1.47;;;23.90;99.90;;;;;;21029385;28;19972;-77
2023/05/06 14:37:28;;;;;;;2.95;1.05;;;24.90;99.90;;;;;;21008992;28;20337;-76
2023/05/06 14:47:28;;;;;;;;;;;23.60;99.90;;;;;;20986203;28;20043;-74
2023/05/06 14:57:29;;;;;;;4.57;1.63;;;23.40;99.90;;;;;;21009544;28;19912;-75
2023/05/06 15:07:30;;;;;;;;;;;23.20;99.90;;;;;;21037910;28;20024;-75
2023/05/06 15:17:31;;;;;;;2.15;1.40;;;23.30;99.90;;;;;;21015388;28;19924;-74
2023/05/06 15:27:31;;;;;;;;;;;23.40;99.90;;;;;;21030001;28;20028;-74
2023/05/06 15:37:33;;;;;;;2.57;1.10;;;23.70;99.90;;;;;;21028860;28;19920;-74
2023/05/06 15:47:33;;;;;;;;;;;23.20;99.90;;;;;;21008193;28;20086;-73
2023/05/06 15:57:34;;;;;;;3.60;1.40;;;23.20;99.90;;;;;;21013983;28;20357;-73
2023/05/06 16:07:35;;;;;;;;;;;22.70;99.90;;;;;;21020728;28;20039;-74
2023/05/06 16:17:37;;;;;;;2.63;1.50;;;22.90;99.90;;;;;;20993636;28;19912;-74
2023/05/06 16:27:37;;;;;;;1.60;1.08;;;22.60;99.90;;;;;;20998875;28;20029;-74
2023/05/06 16:37:38;;;;;;;6.63;1.47;;;22.50;99.90;;;;;;20997875;28;20594;-74
2023/05/06 16:47:39;;;;;;;;;;;22.60;99.90;;;;;;21018281;28;20024;-74
2023/05/06 16:57:40;;;;;;;1.95;1.30;;;22.50;99.90;;;;;;20988480;28;19920;-77
2023/05/06 17:07:41;;;;;;;2.88;1.45;;;22.20;99.90;;;;;;21027404;28;20017;-78
2023/05/06 17:17:42;;;;;;;2.75;1.42;;;22.10;99.90;;;;;;21014695;28;20035;-78
2023/05/06 17:27:43;;;;;;;2.60;1.40;;;21.60;99.90;;;;;;21022188;28;20028;-77
2023/05/06 17:37:45;;;;;;;;;;;21.30;99.90;;;;;;21050243;28;20123;-78
2023/05/06 17:47:45;;;;;;;4.78;1.60;;;21.00;99.90;;;;;;21075542;28;20398;-77
2023/05/06 17:57:46;;;;;;;3.83;1.80;;;20.90;99.90;;;;;;20951257;28;20037;-75
2023/05/06 18:07:47;;;;;;;7.93;2.72;;;20.80;99.90;;;;;;20985406;28;20076;-75
2023/05/06 18:17:48;;;;;;;6.17;1.73;;;20.60;99.90;;;;;;21052676;28;20024;-75
2023/05/06 18:27:50;;;;;;;6.03;1.40;;;20.30;99.90;;;;;;21054990;28;20086;-75
2023/05/06 18:37:51;;;;;;;2.28;1.67;;;19.70;99.90;;;;;;21054770;28;20178;-75
2023/05/06 18:47:52;;;;;;;2.90;1.50;;;18.40;99.90;;;;;;21087461;28;20066;-74
2023/05/06 18:57:53;;;;;;;5.43;1.97;;;18.00;99.90;;;;;;21046449;28;20403;-74
2023/05/06 19:07:53;;;;;;;3.87;1.97;;;17.70;99.90;;;;;;21001169;28;20439;-74
2023/05/06 19:17:55;;;;;;;4.17;2.00;;;17.60;99.90;;;;;;21075536;28;20052;-74
2023/05/06 19:27:56;;;;;;;7.25;2.90;;;17.40;99.90;;;;;;21067869;28;20396;-74
2023/05/06 19:37:57;;;;;;;6.70;2.70;;;16.90;99.90;;;;;;21033638;28;20040;-74
2023/05/06 19:47:58;;;;;;;4.60;2.70;;;16.80;99.90;;;;;;20992962;28;20379;-74
2023/05/06 19:58:00;;;;;;;5.70;2.25;;;16.60;99.90;;;;;;21012369;28;20294;-74
2023/05/06 20:08:01;;;;;;;3.35;2.22;;;16.10;99.90;;;;;;21045183;28;20024;-74
2023/05/06 20:18:02;;;;;;;6.87;2.63;;;16.40;99.90;;;;;;20992821;28;20090;-73
2023/05/06 20:28:04;;;;;;;4.97;2.60;;;15.80;99.90;;;;;;21014304;28;20020;-73
2023/05/06 20:38:08;;;;;;;6.60;2.72;;;15.90;99.90;;;;;;21021835;28;20128;-75
2023/05/06 20:48:08;;;;;;;5.00;2.90;;;15.00;99.90;;;;;;21013058;28;20394;-75
2023/05/06 20:58:09;;;;;;;10.47;3.27;;;14.60;99.90;;;;;;21034814;28;20037;-75
2023/05/06 21:08:11;;;;;;;5.67;3.70;;;14.50;99.90;;;;;;21014670;28;20506;-75
2023/05/06 21:18:17;;;;;;;4.80;3.28;;;14.30;99.90;;;;;;21032872;28;20075;-75
2023/05/06 21:28:18;;;;;;;8.88;3.20;;;14.60;99.90;;;;;;21020217;28;20125;-75
2023/05/06 21:38:19;;;;;;;8.43;3.10;;;14.50;99.90;;;;;;20996370;28;20128;-75
2023/05/06 21:48:20;;;;;;;5.60;3.00;;;14.40;99.90;;;;;;21016193;28;20089;-74
2023/05/06 21:58:21;;;;;;;3.03;2.30;;;13.50;99.90;;;;;;21040618;28;20470;-74
2023/05/06 22:08:21;;;;;;;5.70;2.77;;;13.80;99.90;;;;;;21018934;28;20043;-74
2023/05/06 22:18:22;;;;;;;3.93;2.20;;;13.90;99.90;;;;;;20989083;28;20400;-74
2023/05/06 22:28:23;;;;;;;5.63;2.70;;;13.50;99.90;;;;;;21026572;28;20032;-73
2023/05/06 22:38:24;;;;;;;3.60;2.30;;;13.00;99.90;;;;;;21018202;28;20085;-73
2023/05/06 22:48:25;;;;;;;7.10;2.33;;;13.30;99.90;;;;;;21030307;28;20016;-73
2023/05/06 22:58:26;;;;;;;8.50;2.60;;;13.20;99.90;;;;;;21047084;28;20036;-73
2023/05/06 23:08:26;;;;;;;5.23;2.60;;;13.30;99.90;;;;;;21062883;28;20075;-73
2023/05/06 23:18:27;;;;;;;5.30;3.53;;;12.80;99.90;;;;;;21067634;28;20039;-73
2023/05/06 23:28:28;;;;;;;4.33;2.50;;;13.30;99.90;;;;;;21031770;28;20437;-73
2023/05/06 23:38:29;;;;;;;6.10;2.90;;;13.00;99.90;;;;;;20986480;28;20047;-73
2023/05/06 23:48:29;;;;;;;6.77;2.40;;;13.20;99.90;;;;;;21044837;28;20116;-73
2023/05/06 23:58:30;;;;;;;3.53;2.60;;;13.00;99.90;;;;;;21082611;28;20490;-74
